createdAt,value
2018-09-11T00:02:17.033Z,99042.39
2018-09-11T00:04:45.903Z,99044.68
2018-09-11T00:07:14.878Z,99045.41
2018-09-11T00:09:50.242Z,99047.92
2018-09-11T00:12:19.267Z,99051.61
2018-09-11T00:14:48.148Z,99045.03
2018-09-11T00:17:17.228Z,99051.61
2018-09-11T00:19:45.974Z,99051.73
2018-09-11T00:22:14.747Z,99042.27
2018-09-11T00:24:43.605Z,99046.49
2018-09-11T00:27:12.602Z,99039.19
2018-09-11T00:29:41.690Z,99038.55
2018-09-11T00:32:10.593Z,99040.30
2018-09-11T00:34:39.592Z,99033.58
2018-09-11T00:37:08.291Z,99030.25
2018-09-11T00:39:37.916Z,99029.69
2018-09-11T00:42:06.884Z,99029.56
2018-09-11T00:44:35.735Z,99034.33
2018-09-11T00:47:04.711Z,99039.06
2018-09-11T00:49:33.704Z,99047.25
2018-09-11T00:52:02.793Z,99040.45
2018-09-11T00:54:32.028Z,99042.44
2018-09-11T00:57:00.849Z,99044.12
2018-09-11T00:59:29.898Z,99042.74
2018-09-11T01:01:58.730Z,99051.00
2018-09-11T01:04:27.675Z,99049.69
2018-09-11T01:06:56.677Z,99054.73
2018-09-11T01:09:25.525Z,99054.48
2018-09-11T01:11:54.663Z,99056.33
2018-09-11T01:14:23.499Z,99063.30
2018-09-11T01:19:43.710Z,99054.22
2018-09-11T01:22:12.658Z,99062.62
2018-09-11T01:24:41.489Z,99057.77
2018-09-11T01:27:10.747Z,99067.22
2018-09-11T01:29:39.594Z,99069.91
2018-09-11T01:32:08.699Z,99069.67
2018-09-11T01:34:37.681Z,99071.89
2018-09-11T01:37:06.814Z,99070.36
2018-09-11T01:39:35.600Z,99070.69
2018-09-11T01:42:04.556Z,99073.61
2018-09-11T01:44:33.448Z,99071.89
2018-09-11T01:47:02.364Z,99066.77
2018-09-11T01:49:31.544Z,99071.02
2018-09-11T01:52:00.543Z,99064.43
2018-09-11T01:54:29.438Z,99072.64
2018-09-11T01:56:58.103Z,99072.33
2018-09-11T01:59:27.150Z,99075.47
2018-09-11T02:01:56.125Z,99077.66
2018-09-11T02:04:25.110Z,99075.23
2018-09-11T02:06:54.005Z,99075.63
2018-09-11T02:09:23.139Z,99079.51
2018-09-11T02:11:52.053Z,99081.05
2018-09-11T02:14:20.899Z,99077.52
2018-09-11T02:16:49.584Z,99084.52
2018-09-11T02:19:18.423Z,99086.09
2018-09-11T02:21:47.872Z,99083.25
2018-09-11T02:24:17.080Z,99090.03
2018-09-11T02:26:45.990Z,99090.79
2018-09-11T02:29:15.001Z,99088.33
2018-09-11T02:31:43.878Z,99090.99
2018-09-11T02:34:12.914Z,99085.27
2018-09-11T02:36:41.763Z,99084.95
2018-09-11T02:39:12.186Z,99080.96
2018-09-11T02:41:41.050Z,99084.47
2018-09-11T02:44:10.871Z,99087.75
2018-09-11T02:46:40.012Z,99098.13
2018-09-11T02:49:09.041Z,99090.11
2018-09-11T02:51:37.970Z,99098.52
2018-09-11T02:54:06.852Z,99094.59
2018-09-11T02:56:35.733Z,99094.37
2018-09-11T02:59:04.856Z,99095.52
2018-09-11T03:01:33.759Z,99099.04
2018-09-11T03:04:02.789Z,99096.72
2018-09-11T03:06:31.727Z,99095.70
2018-09-11T03:09:00.834Z,99097.71
2018-09-11T03:11:29.900Z,99100.25
2018-09-11T03:13:58.846Z,99105.50
2018-09-11T03:16:27.622Z,99106.23
2018-09-11T03:18:56.477Z,99107.55
2018-09-11T03:21:25.516Z,99107.23
2018-09-11T03:23:54.449Z,99106.88
2018-09-11T03:26:23.305Z,99106.77
2018-09-11T03:28:52.299Z,99113.30
2018-09-11T03:31:21.155Z,99121.25
2018-09-11T03:33:50.182Z,99114.32
2018-09-11T03:36:19.005Z,99115.25
2018-09-11T03:38:47.844Z,99116.04
2018-09-11T03:41:16.821Z,99123.34
2018-09-11T03:43:45.844Z,99116.30
2018-09-11T03:46:15.003Z,99130.98
2018-09-11T03:48:43.675Z,99132.16
2018-09-11T03:51:12.624Z,99134.89
2018-09-11T03:53:42.204Z,99135.95
2018-09-11T03:56:11.395Z,99131.13
2018-09-11T03:58:40.341Z,99130.73
2018-09-11T04:01:09.176Z,99132.37
2018-09-11T04:03:37.928Z,99134.34
2018-09-11T04:06:06.717Z,99137.25
2018-09-11T04:08:35.751Z,99141.36
2018-09-11T04:11:04.669Z,99146.49
2018-09-11T04:13:37.154Z,99147.97
2018-09-11T04:16:05.993Z,99150.41
2018-09-11T04:18:34.885Z,99144.60
2018-09-11T04:21:03.841Z,99152.12
2018-09-11T04:23:32.838Z,99155.65
2018-09-11T04:26:03.818Z,99143.79
2018-09-11T04:28:33.537Z,99148.53
2018-09-11T04:31:03.027Z,99146.55
2018-09-11T04:33:32.054Z,99144.75
2018-09-11T04:36:01.002Z,99140.78
2018-09-11T04:38:30.118Z,99144.09
2018-09-11T04:40:59.018Z,99146.11
2018-09-11T04:43:27.982Z,99142.88
2018-09-11T04:45:56.828Z,99144.20
2018-09-11T04:48:25.864Z,99140.11
2018-09-11T04:50:54.964Z,99144.03
2018-09-11T04:53:24.082Z,99150.28
2018-09-11T04:55:53.066Z,99149.89
2018-09-11T04:58:21.945Z,99145.25
2018-09-11T05:00:50.714Z,99148.58
2018-09-11T05:03:19.734Z,99149.98
2018-09-11T05:05:49.108Z,99149.80
2018-09-11T05:08:17.949Z,99151.69
2018-09-11T05:10:46.935Z,99150.20
2018-09-11T05:13:15.702Z,99155.01
2018-09-11T05:15:44.415Z,99155.39
2018-09-11T05:18:13.391Z,99155.19
2018-09-11T05:20:42.186Z,99157.64
2018-09-11T05:23:10.983Z,99157.16
2018-09-11T05:25:39.881Z,99159.48
2018-09-11T05:28:09.351Z,99165.36
2018-09-11T05:30:38.075Z,99162.26
2018-09-11T05:33:07.267Z,99176.23
2018-09-11T05:35:36.225Z,99176.17
2018-09-11T05:38:05.225Z,99176.16
2018-09-11T05:40:34.307Z,99182.76
2018-09-11T05:43:03.297Z,99180.09
2018-09-11T05:45:32.309Z,99182.23
2018-09-11T05:48:01.742Z,99181.14
2018-09-11T05:50:30.583Z,99186.07
2018-09-11T05:52:59.274Z,99188.89
2018-09-11T05:55:28.114Z,99182.08
2018-09-11T05:57:57.154Z,99186.03
2018-09-11T06:00:27.260Z,99179.11
2018-09-11T06:02:55.969Z,99186.70
2018-09-11T06:05:25.073Z,99188.58
2018-09-11T06:07:53.757Z,99194.69
2018-09-11T06:10:22.628Z,99191.43
2018-09-11T06:12:51.886Z,99196.80
2018-09-11T06:15:20.492Z,99196.36
2018-09-11T06:17:49.322Z,99196.11
2018-09-11T06:20:18.250Z,99195.22
2018-09-11T06:22:46.992Z,99194.19
2018-09-11T06:25:15.872Z,99194.07
2018-09-11T06:27:44.795Z,99190.72
2018-09-11T06:30:13.489Z,99193.81
2018-09-11T06:32:42.230Z,99193.36
2018-09-11T06:35:11.226Z,99190.23
2018-09-11T06:37:40.084Z,99196.52
2018-09-11T06:40:09.232Z,99189.02
2018-09-11T06:42:38.027Z,99188.20
2018-09-11T06:45:06.810Z,99195.61
2018-09-11T06:47:35.840Z,99196.25
2018-09-11T06:50:04.872Z,99194.16
2018-09-11T06:52:33.791Z,99199.41
2018-09-11T06:55:02.631Z,99195.37
2018-09-11T06:57:31.999Z,99193.29
2018-09-11T07:00:01.002Z,99200.13
2018-09-11T07:02:30.001Z,99202.52
2018-09-11T07:04:59.042Z,99199.10
2018-09-11T07:07:28.033Z,99190.95
2018-09-11T07:09:57.759Z,99189.00
2018-09-11T07:12:26.815Z,99184.48
2018-09-11T07:14:55.724Z,99190.55
2018-09-11T07:17:24.687Z,99190.17
2018-09-11T07:19:53.678Z,99189.59
2018-09-11T07:22:22.467Z,99198.11
2018-09-11T07:24:51.765Z,99193.95
2018-09-11T07:27:20.636Z,99193.08
2018-09-11T07:29:49.858Z,99190.68
2018-09-11T07:32:18.666Z,99195.06
2018-09-11T07:34:47.712Z,99199.39
2018-09-11T07:37:16.991Z,99201.09
2018-09-11T07:39:45.818Z,99199.06
2018-09-11T07:42:14.703Z,99200.56
2018-09-11T07:44:43.558Z,99191.42
2018-09-11T07:47:12.302Z,99198.12
2018-09-11T07:49:41.256Z,99198.53
2018-09-11T07:52:10.182Z,99204.27
2018-09-11T07:54:39.123Z,99202.47
2018-09-11T07:57:08.185Z,99209.13
2018-09-11T07:59:37.228Z,99215.55
2018-09-11T08:02:06.102Z,99217.94
2018-09-11T08:04:35.017Z,99215.29
2018-09-11T08:07:04.042Z,99220.59
2018-09-11T08:09:33.239Z,99215.55
2018-09-11T08:12:02.116Z,99213.19
2018-09-11T08:14:30.954Z,99211.34
2018-09-11T08:16:59.717Z,99208.20
2018-09-11T08:19:28.931Z,99206.81
2018-09-11T08:21:57.839Z,99204.91
2018-09-11T08:24:26.725Z,99204.64
2018-09-11T08:26:55.600Z,99201.27
2018-09-11T08:29:24.715Z,99201.56
2018-09-11T08:31:53.758Z,99199.73
2018-09-11T08:34:22.541Z,99206.38
2018-09-11T08:36:51.362Z,99199.48
2018-09-11T08:39:20.397Z,99201.22
2018-09-11T08:41:49.264Z,99198.47
2018-09-11T08:44:18.236Z,99205.50
2018-09-11T08:46:47.085Z,99196.82
2018-09-11T08:49:15.955Z,99202.39
2018-09-11T08:51:44.821Z,99197.91
2018-09-11T08:54:13.713Z,99199.73
2018-09-11T08:56:42.611Z,99193.70
2018-09-11T08:59:12.948Z,99198.50
2018-09-11T09:01:41.763Z,99189.59
2018-09-11T09:04:10.610Z,99197.25
2018-09-11T09:06:39.548Z,99200.31
2018-09-11T09:09:10.619Z,99190.80
2018-09-11T09:11:39.876Z,99195.58
2018-09-11T09:14:09.049Z,99203.73
2018-09-11T09:16:37.972Z,99195.91
2018-09-11T09:19:06.919Z,99192.58
2018-09-11T09:21:35.973Z,99197.20
2018-09-11T09:24:04.931Z,99189.70
2018-09-11T09:26:34.885Z,99191.30
2018-09-11T09:29:03.847Z,99189.92
2018-09-11T09:31:32.993Z,99190.98
2018-09-11T09:34:01.924Z,99188.41
2018-09-11T09:36:31.229Z,99189.70
2018-09-11T09:39:00.480Z,99186.55
2018-09-11T09:41:29.373Z,99190.66
2018-09-11T09:43:58.083Z,99183.60
2018-09-11T09:46:26.825Z,99176.09
2018-09-11T09:48:56.647Z,99185.66
2018-09-11T09:51:25.592Z,99185.80
2018-09-11T09:53:54.537Z,99185.57
2018-09-11T09:56:23.498Z,99184.17
2018-09-11T09:58:52.696Z,99185.70
2018-09-11T10:01:28.376Z,99180.66
2018-09-11T10:03:57.393Z,99175.09
2018-09-11T10:06:26.362Z,99179.42
2018-09-11T10:08:55.112Z,99178.19
2018-09-11T10:11:24.171Z,99171.13
2018-09-11T10:13:53.541Z,99166.92
2018-09-11T10:16:22.282Z,99169.83
2018-09-11T10:18:51.026Z,99163.86
2018-09-11T10:21:19.755Z,99163.33
2018-09-11T10:23:48.674Z,99158.86
2018-09-11T10:26:17.314Z,99161.11
2018-09-11T10:28:46.013Z,99164.84
2018-09-11T10:31:14.923Z,99159.56
2018-09-11T10:33:43.706Z,99158.70
2018-09-11T10:36:12.491Z,99164.13
2018-09-11T10:38:41.405Z,99157.52
2018-09-11T10:41:10.282Z,99154.84
2018-09-11T10:43:39.109Z,99164.28
2018-09-11T10:46:08.155Z,99148.22
2018-09-11T10:48:36.989Z,99156.55
2018-09-11T10:51:05.863Z,99151.62
2018-09-11T10:53:35.107Z,99144.66
2018-09-11T10:56:04.050Z,99140.86
2018-09-11T10:58:32.949Z,99133.63
2018-09-11T11:01:02.320Z,99133.42
2018-09-11T11:03:31.135Z,99135.48
2018-09-11T11:06:00.029Z,99131.52
2018-09-11T11:08:28.969Z,99135.14
2018-09-11T11:10:57.695Z,99123.91
2018-09-11T11:13:26.912Z,99123.17
2018-09-11T11:15:55.988Z,99122.30
2018-09-11T11:18:25.099Z,99121.37
2018-09-11T11:20:53.829Z,99121.70
2018-09-11T11:23:22.630Z,99111.55
2018-09-11T11:25:51.553Z,99115.63
2018-09-11T11:28:20.337Z,99111.43
2018-09-11T11:30:49.218Z,99109.61
2018-09-11T11:33:18.064Z,99096.69
2018-09-11T11:35:46.759Z,99102.35
2018-09-11T11:38:15.883Z,99103.54
2018-09-11T11:40:44.801Z,99107.88
2018-09-11T11:43:14.048Z,99106.75
2018-09-11T11:45:43.280Z,99106.66
2018-09-11T11:48:12.295Z,99108.05
2018-09-11T11:50:41.674Z,99104.67
2018-09-11T11:53:11.057Z,99099.81
2018-09-11T11:55:42.675Z,99100.49
2018-09-11T11:58:11.732Z,99091.34
2018-09-11T12:00:40.609Z,99089.53
2018-09-11T12:03:09.759Z,99085.34
2018-09-11T12:05:40.268Z,99080.69
2018-09-11T12:08:16.562Z,99085.53
2018-09-11T12:10:46.021Z,99081.09
2018-09-11T12:13:15.187Z,99077.60
2018-09-11T12:15:44.064Z,99075.02
2018-09-11T12:18:12.979Z,99067.67
2018-09-11T12:20:42.912Z,99073.54
2018-09-11T12:23:11.893Z,99076.47
2018-09-11T12:25:41.940Z,99074.18
2018-09-11T12:28:11.102Z,99057.48
2018-09-11T12:30:40.183Z,99060.42
2018-09-11T12:33:09.538Z,99068.28
2018-09-11T12:35:38.783Z,99068.57
2018-09-11T12:38:07.893Z,99065.41
2018-09-11T12:40:36.810Z,99069.88
2018-09-11T12:43:05.588Z,99060.13
2018-09-11T12:45:34.533Z,99059.98
2018-09-11T12:48:03.714Z,99055.00
2018-09-11T12:50:32.193Z,99052.23
2018-09-11T12:53:02.876Z,99055.33
2018-09-11T12:55:31.843Z,99052.30
2018-09-11T12:58:00.760Z,99054.02
2018-09-11T13:00:29.762Z,99043.03
2018-09-11T13:02:59.598Z,99049.63
2018-09-11T13:05:28.868Z,99053.79
2018-09-11T13:07:57.776Z,99047.30
2018-09-11T13:10:26.832Z,99050.46
2018-09-11T13:12:55.717Z,99047.92
2018-09-11T13:15:26.373Z,99055.60
2018-09-11T13:17:55.112Z,99041.55
2018-09-11T13:20:24.140Z,99040.42
2018-09-11T13:22:53.000Z,99038.62
2018-09-11T13:25:22.025Z,99037.06
2018-09-11T13:27:51.186Z,99036.55
2018-09-11T13:30:20.259Z,99033.87
2018-09-11T13:32:49.047Z,99033.36
2018-09-11T13:35:18.524Z,99032.47
2018-09-11T13:37:47.412Z,99037.05
2018-09-11T13:40:16.101Z,99029.03
2018-09-11T13:42:44.998Z,99037.36
2018-09-11T13:45:13.875Z,99026.34
2018-09-11T13:47:43.462Z,99027.09
2018-09-11T13:50:12.993Z,99026.33
2018-09-11T13:52:42.458Z,99028.11
2018-09-11T13:55:11.625Z,99023.64
2018-09-11T13:57:40.599Z,99024.25
2018-09-11T14:00:09.519Z,99019.77
2018-09-11T14:02:39.087Z,99024.67
2018-09-11T14:05:08.202Z,99024.33
2018-09-11T14:07:36.990Z,99015.31
2018-09-11T14:10:05.950Z,99008.42
2018-09-11T14:12:34.820Z,99010.20
2018-09-11T14:15:04.423Z,99011.47
2018-09-11T14:17:33.568Z,99006.00
2018-09-11T14:20:08.684Z,99007.75
2018-09-11T14:22:37.624Z,99007.80
2018-09-11T14:25:06.647Z,98997.53
2018-09-11T14:27:35.603Z,99009.90
2018-09-11T14:30:04.540Z,98996.80
2018-09-11T14:32:33.520Z,99001.36
2018-09-11T14:35:03.349Z,98996.00
2018-09-11T14:37:34.232Z,98992.08
2018-09-11T14:40:03.135Z,98984.22
2018-09-11T14:42:32.729Z,98981.07
2018-09-11T14:45:01.642Z,98986.39
2018-09-11T14:47:36.047Z,98987.83
2018-09-11T14:50:05.409Z,98989.97
2018-09-11T14:52:34.420Z,98994.04
2018-09-11T14:55:03.328Z,98993.52
2018-09-11T14:57:32.265Z,98991.37
2018-09-11T15:00:01.163Z,98985.89
2018-09-11T15:02:30.133Z,98981.27
2018-09-11T15:04:59.162Z,98977.73
2018-09-11T15:07:28.061Z,98969.50
2018-09-11T15:09:58.233Z,98967.95
2018-09-11T15:12:27.053Z,98961.34
2018-09-11T15:14:56.077Z,98956.55
2018-09-11T15:17:25.027Z,98963.86
2018-09-11T15:19:53.969Z,98963.75
2018-09-11T15:22:22.898Z,98958.03
2018-09-11T15:24:51.929Z,98955.75
2018-09-11T15:27:20.882Z,98949.63
2018-09-11T15:29:50.369Z,98945.95
2018-09-11T15:32:20.015Z,98948.67
2018-09-11T15:34:49.362Z,98947.97
2018-09-11T15:37:18.958Z,98937.53
2018-09-11T15:39:48.867Z,98933.02
2018-09-11T15:42:18.437Z,98934.86
2018-09-11T15:44:47.387Z,98929.86
2018-09-11T15:47:16.228Z,98926.04
2018-09-11T15:49:44.991Z,98924.09
2018-09-11T15:52:13.621Z,98926.28
2018-09-11T15:54:42.252Z,98924.91
2018-09-11T15:57:11.302Z,98925.55
2018-09-11T15:59:40.179Z,98924.33
2018-09-11T16:02:09.279Z,98924.27
2018-09-11T16:04:38.251Z,98925.47
2018-09-11T16:07:07.556Z,98914.08
2018-09-11T16:09:36.376Z,98910.03
2018-09-11T16:12:05.885Z,98913.28
2018-09-11T16:14:34.824Z,98915.84
2018-09-11T16:17:03.669Z,98915.06
2018-09-11T16:19:32.485Z,98916.05
2018-09-11T16:22:01.161Z,98910.98
2018-09-11T16:24:30.122Z,98912.06
2018-09-11T16:26:59.309Z,98907.49
2018-09-11T16:29:28.778Z,98907.95
2018-09-11T16:31:57.967Z,98908.85
2018-09-11T16:34:27.066Z,98904.27
2018-09-11T16:36:56.151Z,98906.80
2018-09-11T16:39:25.062Z,98907.37
2018-09-11T16:41:53.849Z,98908.48
2018-09-11T16:44:22.765Z,98910.16
2018-09-11T16:46:51.766Z,98906.81
2018-09-11T16:49:20.744Z,98912.78
2018-09-11T16:51:49.693Z,98910.00
2018-09-11T16:54:18.537Z,98910.95
2018-09-11T16:56:47.315Z,98908.19
2018-09-11T16:59:16.241Z,98909.77
2018-09-11T17:01:45.239Z,98908.92
2018-09-11T17:04:14.127Z,98920.48
2018-09-11T17:06:42.941Z,98910.66
2018-09-11T17:09:12.005Z,98917.85
2018-09-11T17:11:40.859Z,98920.59
2018-09-11T17:14:09.957Z,98924.44
2018-09-11T17:16:38.742Z,98925.02
2018-09-11T17:19:07.825Z,98929.20
2018-09-11T17:21:36.722Z,98926.38
2018-09-11T17:24:06.095Z,98924.70
2018-09-11T17:26:35.152Z,98926.55
2018-09-11T17:29:03.866Z,98932.38
2018-09-11T17:31:32.860Z,98936.06
2018-09-11T17:34:01.751Z,98931.33
2018-09-11T17:36:30.768Z,98931.33
2018-09-11T17:38:59.547Z,98938.17
2018-09-11T17:41:28.414Z,98936.39
2018-09-11T17:43:57.449Z,98940.88
2018-09-11T17:46:26.407Z,98936.18
2018-09-11T17:48:55.357Z,98934.54
2018-09-11T17:51:24.274Z,98936.42
2018-09-11T17:53:53.051Z,98942.34
2018-09-11T17:56:21.885Z,98941.36
2018-09-11T17:58:50.631Z,98942.34
2018-09-11T18:01:19.740Z,98942.81
2018-09-11T18:03:48.604Z,98952.06
2018-09-11T18:06:17.572Z,98951.03
2018-09-11T18:08:46.705Z,98951.81
2018-09-11T18:11:15.451Z,98959.98
2018-09-11T18:13:44.407Z,98960.45
2018-09-11T18:16:13.588Z,98965.80
2018-09-11T18:18:42.497Z,98963.55
2018-09-11T18:21:11.511Z,98972.55
2018-09-11T18:23:41.018Z,98966.84
2018-09-11T18:26:10.062Z,98967.64
2018-09-11T18:28:38.756Z,98964.90
2018-09-11T18:31:07.785Z,98966.02
2018-09-11T18:33:36.650Z,98971.13
2018-09-11T18:36:05.632Z,98972.59
2018-09-11T18:38:34.375Z,98975.48
2018-09-11T18:41:03.290Z,98980.43
2018-09-11T18:43:32.430Z,98982.20
2018-09-11T18:46:01.369Z,98985.34
2018-09-11T18:48:30.216Z,98985.28
2018-09-11T18:50:59.357Z,98986.25
2018-09-11T18:53:28.362Z,98997.68
2018-09-11T18:55:57.235Z,98987.64
2018-09-11T18:58:26.214Z,98987.77
2018-09-11T19:00:55.997Z,98984.97
2018-09-11T19:03:24.795Z,98990.11
2018-09-11T19:05:53.717Z,98989.33
2018-09-11T19:08:22.543Z,98989.52
2018-09-11T19:10:51.323Z,98998.81
2018-09-11T19:13:20.275Z,99000.54
2018-09-11T19:15:49.651Z,98998.50
2018-09-11T19:18:23.519Z,99001.05
2018-09-11T19:20:52.662Z,98992.05
2018-09-11T19:23:22.308Z,98992.41
2018-09-11T19:25:51.681Z,98994.29
2018-09-11T19:28:20.870Z,98996.66
2018-09-11T19:30:50.267Z,98989.08
2018-09-11T19:33:19.389Z,98988.77
2018-09-11T19:35:48.496Z,98986.98
2018-09-11T19:38:18.226Z,98982.08
2018-09-11T19:40:47.229Z,98988.72
2018-09-11T19:43:15.977Z,98984.90
2018-09-11T19:45:44.981Z,98990.09
2018-09-11T19:48:14.069Z,98994.09
2018-09-11T19:50:42.847Z,98993.95
2018-09-11T19:53:11.737Z,98997.77
2018-09-11T19:55:40.487Z,99002.59
2018-09-11T19:58:09.367Z,99006.05
2018-09-11T20:00:38.376Z,99000.89
2018-09-11T20:03:07.983Z,99001.87
2018-09-11T20:05:37.037Z,98996.77
2018-09-11T20:08:05.932Z,98993.86
2018-09-11T20:10:35.484Z,98994.94
2018-09-11T20:13:04.836Z,98995.56
2018-09-11T20:15:33.614Z,99001.20
2018-09-11T20:18:02.551Z,98997.17
2018-09-11T20:20:31.563Z,98999.73
2018-09-11T20:23:00.831Z,98998.28
2018-09-11T20:25:29.862Z,99003.72
2018-09-11T20:27:59.229Z,99003.45
2018-09-11T20:30:28.099Z,98998.21
2018-09-11T20:32:57.105Z,98997.50
2018-09-11T20:35:26.283Z,98992.85
2018-09-11T20:37:55.157Z,98994.80
2018-09-11T20:40:24.155Z,98994.45
2018-09-11T20:42:53.050Z,98991.62
2018-09-11T20:45:22.553Z,99000.29
2018-09-11T20:47:51.529Z,99011.13
2018-09-11T20:50:20.655Z,99011.21
2018-09-11T20:52:50.428Z,99011.89
2018-09-11T20:55:19.106Z,99001.36
2018-09-11T20:57:48.330Z,99017.54
2018-09-11T21:00:17.560Z,99013.95
2018-09-11T21:02:46.292Z,99009.64
2018-09-11T21:05:15.237Z,99008.30
2018-09-11T21:07:44.201Z,99018.18
2018-09-11T21:10:13.226Z,99015.98
2018-09-11T21:12:42.109Z,99016.02
2018-09-11T21:15:11.191Z,99018.69
2018-09-11T21:17:40.331Z,99016.75
2018-09-11T21:20:09.260Z,99020.45
2018-09-11T21:22:37.965Z,99011.56
2018-09-11T21:25:06.736Z,99014.02
2018-09-11T21:27:35.990Z,99015.53
2018-09-11T21:30:06.538Z,99005.86
2018-09-11T21:32:35.859Z,99013.67
2018-09-11T21:35:06.308Z,99004.36
2018-09-11T21:37:35.183Z,99006.64
2018-09-11T21:40:04.722Z,99013.70
2018-09-11T21:42:33.653Z,99015.61
2018-09-11T21:45:03.804Z,99018.78
2018-09-11T21:47:32.606Z,99011.88
2018-09-11T21:50:01.661Z,99016.05
2018-09-11T21:52:30.684Z,99014.45
2018-09-11T21:54:59.770Z,99021.37
2018-09-11T21:57:28.802Z,99017.48
2018-09-11T21:59:58.431Z,99021.22
2018-09-11T22:02:27.643Z,99024.04
2018-09-11T22:04:56.465Z,99023.52
2018-09-11T22:07:25.527Z,99025.00
2018-09-11T22:09:54.485Z,99022.33
2018-09-11T22:12:23.463Z,99026.85
2018-09-11T22:14:53.336Z,99026.85
2018-09-11T22:17:22.311Z,99020.16
2018-09-11T22:19:51.100Z,99024.78
2018-09-11T22:22:20.126Z,99032.56
2018-09-11T22:24:49.048Z,99035.75
2018-09-11T22:27:17.967Z,99035.98
2018-09-11T22:29:47.096Z,99023.24
2018-09-11T22:32:16.137Z,99027.59
2018-09-11T22:34:45.108Z,99019.59
2018-09-11T22:37:14.007Z,99016.42
2018-09-11T22:39:42.934Z,99016.06
2018-09-11T22:42:11.883Z,99015.34
2018-09-11T22:44:40.696Z,99014.86
2018-09-11T22:47:09.727Z,99019.72
2018-09-11T22:49:38.674Z,99018.98
2018-09-11T22:52:07.823Z,99023.45
2018-09-11T22:54:36.692Z,99026.51
2018-09-11T22:57:05.527Z,99013.88
2018-09-11T22:59:34.923Z,99009.64
2018-09-11T23:02:03.890Z,99010.36
2018-09-11T23:04:32.813Z,99012.61
2018-09-11T23:07:02.217Z,99014.84
2018-09-11T23:09:31.311Z,99009.03
2018-09-11T23:12:00.063Z,99012.45
2018-09-11T23:14:28.756Z,99013.06
2018-09-11T23:16:57.801Z,99003.62
2018-09-11T23:19:27.590Z,99007.92
2018-09-11T23:22:03.033Z,99008.70
2018-09-11T23:24:33.132Z,99007.28
2018-09-11T23:27:02.137Z,99005.45
2018-09-11T23:29:31.311Z,99007.86
2018-09-11T23:32:00.222Z,99006.17
2018-09-11T23:34:29.009Z,99010.16
2018-09-11T23:36:58.627Z,99006.36
2018-09-11T23:39:27.626Z,99006.11
2018-09-11T23:41:56.788Z,99009.03
2018-09-11T23:44:25.538Z,99014.95
2018-09-11T23:46:54.645Z,99016.06
2018-09-11T23:49:23.622Z,99016.09
2018-09-11T23:51:52.780Z,99013.94
2018-09-11T23:54:21.686Z,99012.70
2018-09-11T23:56:51.007Z,99020.00
2018-09-11T23:59:19.883Z,99007.52
